createdAt,value
2017-02-15T00:00:24.864Z,28.3
2017-02-15T00:01:27.731Z,28.3
2017-02-15T00:02:27.799Z,28.3
2017-02-15T00:03:27.860Z,28.2
2017-02-15T00:04:27.947Z,28.3
2017-02-15T00:05:28.000Z,28.2
2017-02-15T00:06:28.059Z,28.2
2017-02-15T00:07:25.260Z,28.2
2017-02-15T00:08:25.301Z,28.2
2017-02-15T00:09:25.370Z,28.2
2017-02-15T00:10:28.289Z,28.2
2017-02-15T00:11:28.382Z,28.2
2017-02-15T00:12:25.596Z,28.2
2017-02-15T00:13:28.551Z,28.2
2017-02-15T00:14:28.607Z,28.2
2017-02-15T00:15:25.827Z,28.2
2017-02-15T00:16:28.624Z,28.2
2017-02-15T00:17:25.796Z,28.2
2017-02-15T00:18:28.741Z,28.2
2017-02-15T00:19:28.723Z,28.2
2017-02-15T00:20:28.805Z,28.2
2017-02-15T00:21:26.003Z,28.2
2017-02-15T00:22:26.060Z,28.2
2017-02-15T00:23:26.067Z,28.2
2017-02-15T00:24:26.121Z,28.2
2017-02-15T00:25:26.165Z,28.2
2017-02-15T00:26:26.147Z,28.2
2017-02-15T00:27:28.982Z,28.2
2017-02-15T00:28:29.103Z,28.2
2017-02-15T00:29:26.333Z,28.2
2017-02-15T00:30:26.388Z,28.2
2017-02-15T00:31:29.289Z,28.2
2017-02-15T00:32:29.302Z,28.2
2017-02-15T00:33:26.547Z,28.2
2017-02-15T00:34:26.636Z,28.2
2017-02-15T00:35:29.487Z,28.2
2017-02-15T00:36:26.744Z,28.2
2017-02-15T00:37:26.821Z,28.2
2017-02-15T00:38:29.673Z,28.2
2017-02-15T00:39:29.777Z,28.2
2017-02-15T00:40:27.017Z,28.2
2017-02-15T00:41:27.052Z,28.2
2017-02-15T00:42:29.925Z,28.2
2017-02-15T00:43:27.107Z,28.2
2017-02-15T00:44:27.112Z,28.2
2017-02-15T00:45:30.761Z,28.2
2017-02-15T00:46:27.817Z,28.2
2017-02-15T00:47:27.208Z,28.2
2017-02-15T00:48:27.300Z,28.2
2017-02-15T00:49:27.941Z,28.2
2017-02-15T00:50:27.450Z,28.2
2017-02-15T00:51:27.490Z,28.2
2017-02-15T00:52:27.502Z,28.2
2017-02-15T00:53:30.483Z,28.2
2017-02-15T00:54:30.534Z,28.2
2017-02-15T00:55:30.622Z,28.2
2017-02-15T00:56:30.642Z,28.2
2017-02-15T00:57:27.833Z,28.2
2017-02-15T00:58:27.893Z,28.2
2017-02-15T00:59:30.764Z,28.2
2017-02-15T01:00:30.842Z,28.2
2017-02-15T01:01:28.053Z,28.2
2017-02-15T01:02:30.936Z,28.2
2017-02-15T01:03:28.151Z,28.2
2017-02-15T01:04:30.993Z,28.2
2017-02-15T01:05:28.194Z,28.2
2017-02-15T01:06:28.255Z,28.2
2017-02-15T01:07:31.121Z,28.2
2017-02-15T01:08:31.217Z,28.2
2017-02-15T01:09:28.344Z,28.2
2017-02-15T01:10:28.372Z,28.2
2017-02-15T01:11:28.372Z,28.2
2017-02-15T01:12:28.404Z,28.2
2017-02-15T01:13:31.277Z,28.2
2017-02-15T01:14:28.519Z,28.2
2017-02-15T01:15:28.562Z,28.2
2017-02-15T01:16:31.450Z,28.2
2017-02-15T01:17:28.593Z,28.2
2017-02-15T01:18:31.500Z,28.2
2017-02-15T01:19:31.470Z,28.2
2017-02-15T01:20:31.582Z,28.1
2017-02-15T01:21:28.731Z,28.2
2017-02-15T01:22:28.766Z,28.2
2017-02-15T01:23:28.760Z,28.2
2017-02-15T01:24:31.733Z,28.2
2017-02-15T01:25:31.769Z,28.2
2017-02-15T01:26:28.887Z,28.2
2017-02-15T01:27:31.815Z,28.2
2017-02-15T01:28:31.927Z,28.2
2017-02-15T01:29:31.913Z,28.2
2017-02-15T01:30:32.007Z,28.2
2017-02-15T01:31:29.303Z,28.1
2017-02-15T01:32:32.133Z,28.2
2017-02-15T01:33:32.158Z,28.2
2017-02-15T01:34:32.171Z,28.2
2017-02-15T01:35:32.178Z,28.2
2017-02-15T01:36:30.027Z,28.2
2017-02-15T01:37:32.309Z,28.2
2017-02-15T01:38:32.299Z,28.2
2017-02-15T01:39:32.357Z,28.1
2017-02-15T01:40:29.617Z,28.2
2017-02-15T01:41:29.626Z,28.2
2017-02-15T01:42:29.708Z,28.1
2017-02-15T01:43:29.946Z,28.2
2017-02-15T01:44:32.704Z,28.2
2017-02-15T01:45:34.091Z,28.1
2017-02-15T01:46:30.045Z,28.2
2017-02-15T01:47:32.919Z,28.2
2017-02-15T01:48:32.929Z,28.1
2017-02-15T01:49:30.360Z,28.2
2017-02-15T01:50:33.027Z,28.2
2017-02-15T01:51:33.110Z,28.2
2017-02-15T01:52:30.321Z,28.1
2017-02-15T01:53:33.213Z,28.2
2017-02-15T01:54:30.406Z,28.2
2017-02-15T01:55:33.452Z,28.2
2017-02-15T01:56:33.313Z,28.2
2017-02-15T01:57:30.588Z,28.2
2017-02-15T01:58:33.437Z,28.2
2017-02-15T01:59:30.701Z,28.2
2017-02-15T02:00:33.619Z,28.2
2017-02-15T02:01:30.776Z,28.2
2017-02-15T02:02:30.795Z,28.2
2017-02-15T02:03:30.869Z,28.2
2017-02-15T02:04:33.730Z,28.2
2017-02-15T02:05:30.975Z,28.2
2017-02-15T02:06:31.060Z,28.2
2017-02-15T02:07:33.892Z,28.2
2017-02-15T02:08:31.124Z,28.2
2017-02-15T02:09:34.024Z,28.1
2017-02-15T02:10:31.300Z,28.2
2017-02-15T02:11:31.371Z,28.2
2017-02-15T02:12:34.235Z,28.1
2017-02-15T02:13:31.488Z,28.2
2017-02-15T02:14:31.551Z,28.2
2017-02-15T02:15:31.595Z,28.2
2017-02-15T02:16:34.421Z,28.2
2017-02-15T02:17:34.463Z,28.2
2017-02-15T02:18:34.569Z,28.1
2017-02-15T02:19:34.629Z,28.2
2017-02-15T02:20:31.861Z,28.2
2017-02-15T02:21:31.941Z,28.2
2017-02-15T02:22:32.057Z,28.1
2017-02-15T02:23:32.175Z,28.2
2017-02-15T02:24:35.043Z,28.2
2017-02-15T02:25:35.111Z,28.2
2017-02-15T02:26:32.323Z,28.2
2017-02-15T02:27:32.959Z,28.2
2017-02-15T02:28:35.255Z,28.1
2017-02-15T02:29:32.517Z,28.2
2017-02-15T02:30:35.421Z,28.2
2017-02-15T02:31:32.577Z,28.1
2017-02-15T02:32:35.468Z,28.2
2017-02-15T02:33:35.476Z,28.2
2017-02-15T02:34:35.556Z,28.2
2017-02-15T02:35:35.626Z,28.2
2017-02-15T02:36:32.886Z,28.1
2017-02-15T02:37:32.987Z,28.2
2017-02-15T02:38:33.007Z,28.1
2017-02-15T02:39:33.021Z,28.2
2017-02-15T02:40:35.996Z,28.2
2017-02-15T02:41:33.179Z,28.1
2017-02-15T02:42:36.005Z,28.2
2017-02-15T02:43:33.219Z,28.1
2017-02-15T02:44:33.381Z,28.1
2017-02-15T02:45:33.486Z,28.1
2017-02-15T02:46:36.477Z,28.2
2017-02-15T02:47:33.645Z,28.2
2017-02-15T02:48:33.734Z,28.1
2017-02-15T02:49:36.668Z,28.1
2017-02-15T02:50:33.809Z,28.1
2017-02-15T02:51:36.785Z,28.2
2017-02-15T02:52:36.796Z,28.1
2017-02-15T02:53:36.729Z,28.1
2017-02-15T02:54:36.882Z,28.1
2017-02-15T02:55:36.866Z,28.1
2017-02-15T02:56:36.855Z,28.1
2017-02-15T02:57:36.892Z,28.1
2017-02-15T02:58:35.083Z,28.1
2017-02-15T02:59:36.946Z,28.1
2017-02-15T03:00:34.147Z,28.1
2017-02-15T03:01:34.179Z,28.1
2017-02-15T03:02:34.235Z,28.1
2017-02-15T03:03:34.354Z,28.1
2017-02-15T03:04:34.438Z,28.1
2017-02-15T03:05:37.405Z,28.1
2017-02-15T03:06:34.592Z,28.1
2017-02-15T03:07:37.485Z,28.1
2017-02-15T03:08:34.649Z,28.1
2017-02-15T03:09:37.672Z,28.1
2017-02-15T03:10:34.871Z,28.1
2017-02-15T03:11:37.739Z,28.1
2017-02-15T03:12:34.948Z,28.1
2017-02-15T03:13:34.895Z,28.1
2017-02-15T03:14:34.964Z,28.1
2017-02-15T03:15:35.113Z,28.1
2017-02-15T03:16:35.139Z,28.1
2017-02-15T03:17:38.042Z,28.1
2017-02-15T03:18:35.326Z,28.1
2017-02-15T03:19:38.159Z,28.1
2017-02-15T03:20:35.316Z,28.1
2017-02-15T03:21:38.210Z,28.1
2017-02-15T03:22:38.271Z,28.1
2017-02-15T03:23:38.281Z,28.1
2017-02-15T03:24:35.482Z,28.1
2017-02-15T03:25:38.399Z,28.1
2017-02-15T03:26:38.475Z,28.1
2017-02-15T03:27:38.641Z,28.1
2017-02-15T03:28:35.792Z,28.1
2017-02-15T03:29:38.610Z,28.1
2017-02-15T03:30:38.647Z,28.1
2017-02-15T03:31:38.746Z,28.1
2017-02-15T03:32:35.883Z,28.1
2017-02-15T03:33:35.932Z,28.1
2017-02-15T03:34:35.970Z,28.1
2017-02-15T03:35:36.034Z,28.1
2017-02-15T03:36:38.954Z,28.1
2017-02-15T03:37:39.002Z,28.1
2017-02-15T03:38:36.186Z,28.1
2017-02-15T03:39:39.652Z,28.1
2017-02-15T03:40:36.400Z,28.1
2017-02-15T03:41:39.298Z,28.1
2017-02-15T03:42:36.455Z,28.1
2017-02-15T03:43:39.363Z,28.1
2017-02-15T03:44:39.460Z,28.1
2017-02-15T03:45:37.342Z,28.1
2017-02-15T03:46:39.519Z,28.1
2017-02-15T03:47:39.559Z,28.1
2017-02-15T03:48:36.747Z,28.1
2017-02-15T03:49:39.664Z,28.1
2017-02-15T03:50:39.624Z,28.1
2017-02-15T03:51:39.707Z,28.1
2017-02-15T03:52:39.710Z,28.1
2017-02-15T03:53:39.684Z,28.1
2017-02-15T03:54:39.703Z,28.1
2017-02-15T03:55:36.888Z,28.1
2017-02-15T03:56:36.984Z,28.1
2017-02-15T03:57:39.810Z,28.1
2017-02-15T03:58:37.055Z,28.1
2017-02-15T03:59:39.878Z,28.1
2017-02-15T04:00:37.145Z,28.1
2017-02-15T04:01:40.031Z,28.1
2017-02-15T04:02:40.136Z,28.1
2017-02-15T04:03:40.158Z,28.1
2017-02-15T04:04:40.221Z,28.1
2017-02-15T04:05:37.449Z,28.1
2017-02-15T04:06:37.468Z,28.1
2017-02-15T04:07:40.445Z,28
2017-02-15T04:08:37.705Z,28.1
2017-02-15T04:09:38.224Z,28
2017-02-15T04:10:40.704Z,28.1
2017-02-15T04:11:40.663Z,28.1
2017-02-15T04:12:40.528Z,28.1
2017-02-15T04:13:40.570Z,28.1
2017-02-15T04:14:37.859Z,28.1
2017-02-15T04:15:37.888Z,28.1
2017-02-15T04:16:37.986Z,28.1
2017-02-15T04:17:38.075Z,28.1
2017-02-15T04:18:40.859Z,28.1
2017-02-15T04:19:40.867Z,28.1
2017-02-15T04:20:40.924Z,28.1
2017-02-15T04:21:41.002Z,28.1
2017-02-15T04:22:38.205Z,28.1
2017-02-15T04:23:41.218Z,28
2017-02-15T04:24:41.313Z,28.1
2017-02-15T04:25:38.545Z,28
2017-02-15T04:26:38.624Z,28.1
2017-02-15T04:27:41.473Z,28.1
2017-02-15T04:28:38.693Z,28.1
2017-02-15T04:29:41.599Z,28.1
2017-02-15T04:30:41.589Z,28.1
2017-02-15T04:31:41.559Z,28.1
2017-02-15T04:32:41.656Z,28.1
2017-02-15T04:33:38.874Z,28.1
2017-02-15T04:34:39.106Z,28.1
2017-02-15T04:35:41.994Z,28.1
2017-02-15T04:36:39.138Z,28.1
2017-02-15T04:37:39.153Z,28.1
2017-02-15T04:38:42.066Z,28
2017-02-15T04:39:42.164Z,28.1
2017-02-15T04:40:39.261Z,28.1
2017-02-15T04:41:42.173Z,28.1
2017-02-15T04:42:39.406Z,28.1
2017-02-15T04:43:39.454Z,28.1
2017-02-15T04:44:42.292Z,28.1
2017-02-15T04:45:39.578Z,28.1
2017-02-15T04:46:39.605Z,28.1
2017-02-15T04:47:42.438Z,28.1
2017-02-15T04:48:39.714Z,28.1
2017-02-15T04:49:43.428Z,28.1
2017-02-15T04:50:39.696Z,28.1
2017-02-15T04:51:42.598Z,28.1
2017-02-15T04:52:42.610Z,28.1
2017-02-15T04:53:42.653Z,28.1
2017-02-15T04:54:39.842Z,28.1
2017-02-15T04:55:40.066Z,28.1
2017-02-15T04:56:39.969Z,28.1
2017-02-15T04:57:40.052Z,28.1
2017-02-15T04:58:40.142Z,28.1
2017-02-15T04:59:40.187Z,28.1
2017-02-15T05:00:40.225Z,28.1
2017-02-15T05:01:40.565Z,28.1
2017-02-15T05:02:40.270Z,28.2
2017-02-15T05:03:40.354Z,28.2
2017-02-15T05:04:43.226Z,28.2
2017-02-15T05:05:40.481Z,28.2
2017-02-15T05:06:43.291Z,28.1
2017-02-15T05:07:40.703Z,28.1
2017-02-15T05:08:43.404Z,28.1
2017-02-15T05:09:40.602Z,28.1
2017-02-15T05:10:40.664Z,28.1
2017-02-15T05:11:40.805Z,28.1
2017-02-15T05:12:40.940Z,28.1
2017-02-15T05:13:43.701Z,28.1
2017-02-15T05:14:43.723Z,28.1
2017-02-15T05:15:43.739Z,28.1
2017-02-15T05:16:40.959Z,28.1
2017-02-15T05:17:43.902Z,28.1
2017-02-15T05:18:41.254Z,28.1
2017-02-15T05:19:43.955Z,28.1
2017-02-15T05:20:44.007Z,28.1
2017-02-15T05:21:41.182Z,28.1
2017-02-15T05:22:41.217Z,28.1
2017-02-15T05:23:44.089Z,28.1
2017-02-15T05:24:41.606Z,28.1
2017-02-15T05:25:44.239Z,28.1
2017-02-15T05:26:44.200Z,28.1
2017-02-15T05:27:44.238Z,28.1
2017-02-15T05:28:44.226Z,28
2017-02-15T05:29:41.562Z,28.1
2017-02-15T05:30:44.595Z,28.1
2017-02-15T05:31:41.592Z,28.1
2017-02-15T05:32:41.667Z,28.1
2017-02-15T05:33:44.561Z,28.1
2017-02-15T05:34:41.700Z,28.1
2017-02-15T05:35:41.812Z,28.1
2017-02-15T05:36:43.314Z,28.1
2017-02-15T05:37:41.815Z,28.1
2017-02-15T05:38:41.922Z,28.1
2017-02-15T05:39:41.904Z,28.1
2017-02-15T05:40:44.885Z,28.1
2017-02-15T05:41:44.918Z,28.1
2017-02-15T05:42:42.419Z,28.1
2017-02-15T05:43:42.188Z,28.1
2017-02-15T05:44:45.061Z,28.1
2017-02-15T05:45:45.737Z,28.1
2017-02-15T05:46:45.197Z,28.1
2017-02-15T05:47:42.407Z,28.1
2017-02-15T05:48:45.661Z,28.1
2017-02-15T05:49:42.629Z,28.1
2017-02-15T05:50:45.411Z,28.1
2017-02-15T05:51:45.536Z,28.1
2017-02-15T05:52:45.468Z,28.1
2017-02-15T05:53:45.449Z,28.1
2017-02-15T05:54:42.922Z,28.1
2017-02-15T05:55:42.874Z,28.1
2017-02-15T05:56:42.876Z,28.1
2017-02-15T05:57:45.705Z,28.1
2017-02-15T05:58:42.977Z,28.1
2017-02-15T05:59:42.983Z,28.1
2017-02-15T06:00:43.307Z,28.1
2017-02-15T06:01:45.836Z,28.1
2017-02-15T06:02:43.150Z,28.1
2017-02-15T06:03:45.962Z,28.1
2017-02-15T06:04:43.225Z,28.1
2017-02-15T06:05:46.092Z,28.1
2017-02-15T06:06:43.585Z,28.1
2017-02-15T06:07:46.236Z,28.1
2017-02-15T06:08:46.274Z,28.1
2017-02-15T06:09:46.367Z,28.1
2017-02-15T06:10:43.660Z,28.1
2017-02-15T06:11:46.467Z,28.1
2017-02-15T06:12:46.640Z,28.1
2017-02-15T06:13:43.746Z,28.1
2017-02-15T06:14:46.702Z,28.1
2017-02-15T06:15:43.890Z,28.1
2017-02-15T06:16:46.654Z,28.1
2017-02-15T06:17:46.776Z,28.1
2017-02-15T06:18:47.624Z,28.1
2017-02-15T06:19:46.789Z,28.1
2017-02-15T06:20:44.052Z,28.1
2017-02-15T06:21:44.052Z,28.1
2017-02-15T06:22:44.113Z,28.1
2017-02-15T06:23:46.940Z,28.1
2017-02-15T06:24:44.375Z,28.1
2017-02-15T06:25:44.192Z,28.1
2017-02-15T06:26:44.251Z,28.1
2017-02-15T06:27:44.360Z,28.1
2017-02-15T06:28:47.110Z,28.1
2017-02-15T06:29:44.440Z,28.1
2017-02-15T06:30:44.751Z,28.1
2017-02-15T06:31:47.252Z,28.1
2017-02-15T06:32:47.325Z,28.1
2017-02-15T06:33:47.369Z,28.1
2017-02-15T06:34:44.740Z,28.1
2017-02-15T06:35:47.493Z,28.1
2017-02-15T06:36:47.714Z,28.1
2017-02-15T06:37:44.856Z,28.1
2017-02-15T06:38:44.830Z,28.1
2017-02-15T06:39:47.608Z,28.1
2017-02-15T06:40:44.878Z,28.1
2017-02-15T06:41:44.859Z,28.1
2017-02-15T06:42:47.844Z,28.1
2017-02-15T06:43:47.858Z,28.1
2017-02-15T06:44:47.878Z,28.1
2017-02-15T06:45:45.219Z,28.1
2017-02-15T06:46:46.553Z,28.2
2017-02-15T06:47:48.111Z,28.1
2017-02-15T06:48:48.231Z,28.1
2017-02-15T06:49:45.452Z,28.1
2017-02-15T06:50:45.567Z,28.1
2017-02-15T06:51:45.452Z,28.1
2017-02-15T06:52:45.488Z,28.2
2017-02-15T06:53:45.587Z,28.2
2017-02-15T06:54:45.789Z,28.2
2017-02-15T06:55:48.565Z,28.2
2017-02-15T06:56:45.832Z,28.2
2017-02-15T06:57:45.899Z,28.2
2017-02-15T06:58:48.683Z,28.2
2017-02-15T06:59:45.976Z,28.2
2017-02-15T07:00:49.031Z,28.1
2017-02-15T07:01:48.922Z,28.2
2017-02-15T07:02:48.970Z,28.2
2017-02-15T07:03:49.039Z,28.1
2017-02-15T07:04:46.284Z,28.2
2017-02-15T07:05:49.109Z,28.2
2017-02-15T07:06:46.573Z,28.2
2017-02-15T07:07:49.189Z,28.2
2017-02-15T07:08:46.482Z,28.2
2017-02-15T07:09:46.525Z,28.2
2017-02-15T07:10:49.336Z,28.2
2017-02-15T07:11:49.396Z,28.3
2017-02-15T07:12:46.875Z,28.2
2017-02-15T07:13:46.713Z,28.3
2017-02-15T07:14:46.869Z,28.3
2017-02-15T07:15:49.582Z,28.3
2017-02-15T07:16:49.605Z,28.3
2017-02-15T07:17:49.680Z,28.3
2017-02-15T07:18:47.212Z,28.3
2017-02-15T07:19:47.653Z,28.3
2017-02-15T07:20:49.898Z,28.3
2017-02-15T07:21:49.893Z,28.4
2017-02-15T07:22:49.976Z,28.3
2017-02-15T07:23:50.027Z,28.4
2017-02-15T07:24:50.285Z,28.3
2017-02-15T07:25:50.259Z,28.4
2017-02-15T07:26:50.165Z,28.4
2017-02-15T07:27:47.466Z,27.7
2017-02-15T07:28:47.463Z,27
2017-02-15T07:29:47.458Z,25.9
2017-02-15T07:30:51.077Z,25.2
2017-02-15T07:31:51.509Z,24.5
2017-02-15T07:32:47.488Z,23.9
2017-02-15T07:33:50.297Z,23.3
2017-02-15T07:34:47.532Z,22.7
2017-02-15T07:35:50.287Z,22.3
2017-02-15T07:36:51.129Z,21.7
2017-02-15T07:37:47.692Z,21.2
2017-02-15T07:38:50.447Z,20.9
2017-02-15T07:39:47.702Z,20.6
2017-02-15T07:40:50.529Z,20.4
2017-02-15T07:41:47.739Z,20.1
2017-02-15T07:42:48.004Z,19.8
2017-02-15T07:43:50.579Z,19.4
2017-02-15T07:44:50.623Z,19.4
2017-02-15T07:45:50.737Z,19.5
2017-02-15T07:46:51.437Z,19.7
2017-02-15T07:47:50.901Z,20
2017-02-15T07:48:51.179Z,20.4
2017-02-15T07:49:48.221Z,20.8
2017-02-15T07:50:48.367Z,21.1
2017-02-15T07:51:48.312Z,21.5
2017-02-15T07:52:51.190Z,21.8
2017-02-15T07:53:51.237Z,22.1
2017-02-15T07:54:48.699Z,22.3
2017-02-15T07:55:48.471Z,22.6
2017-02-15T07:56:51.335Z,22.9
2017-02-15T07:57:51.344Z,23
2017-02-15T07:58:51.383Z,23.3
2017-02-15T07:59:51.429Z,23.5
2017-02-15T08:00:48.919Z,23.7
2017-02-15T08:01:51.616Z,23.8
2017-02-15T08:02:48.877Z,24
2017-02-15T08:03:48.918Z,24.2
2017-02-15T08:04:51.838Z,24.3
2017-02-15T08:05:52.492Z,24.5
2017-02-15T08:06:49.310Z,24.7
2017-02-15T08:07:51.978Z,24.8
2017-02-15T08:08:53.328Z,25
2017-02-15T08:09:52.164Z,25.1
2017-02-15T08:10:52.183Z,25.2
2017-02-15T08:11:55.535Z,25.2
2017-02-15T08:12:54.976Z,25.2
2017-02-15T08:13:53.666Z,25.1
2017-02-15T08:14:52.311Z,25.2
2017-02-15T08:15:52.385Z,25.2
2017-02-15T08:16:52.482Z,25.2
2017-02-15T08:17:49.657Z,25.1
2017-02-15T08:18:49.853Z,25.2
2017-02-15T08:19:53.148Z,25.2
2017-02-15T08:20:52.636Z,25.2
2017-02-15T08:21:49.913Z,25.1
2017-02-15T08:22:52.749Z,25.1
2017-02-15T08:23:49.979Z,25.1
2017-02-15T08:24:52.996Z,25.1
2017-02-15T08:25:50.018Z,25
2017-02-15T08:26:50.051Z,25
2017-02-15T08:27:52.877Z,24.9
2017-02-15T08:28:53.652Z,25
2017-02-15T08:29:53.130Z,24.9
2017-02-15T08:30:51.013Z,24.9
2017-02-15T08:31:53.191Z,24.9
2017-02-15T08:32:50.409Z,24.9
2017-02-15T08:33:53.257Z,24.9
2017-02-15T08:34:53.316Z,24.9
2017-02-15T08:35:50.516Z,24.9
2017-02-15T08:36:50.789Z,24.9
2017-02-15T08:37:50.689Z,24.9
2017-02-15T08:38:53.658Z,24.9
2017-02-15T08:39:50.791Z,24.9
2017-02-15T08:40:53.721Z,24.9
2017-02-15T08:41:52.035Z,24.9
2017-02-15T08:42:54.518Z,24.9
2017-02-15T08:43:53.911Z,24.9
2017-02-15T08:44:53.892Z,24.9
2017-02-15T08:45:51.086Z,25
2017-02-15T08:46:54.663Z,25
2017-02-15T08:47:53.994Z,25
2017-02-15T08:48:54.249Z,25
2017-02-15T08:49:55.377Z,25
2017-02-15T08:50:51.321Z,25
2017-02-15T08:52:55.459Z,24.9
2017-02-15T08:53:52.815Z,24.9
2017-02-15T08:54:55.533Z,24.9
2017-02-15T08:55:52.773Z,24.9
2017-02-15T08:56:55.722Z,24.9
2017-02-15T08:57:55.955Z,24.8
2017-02-15T08:58:52.978Z,24.9
2017-02-15T08:59:56.079Z,24.9
2017-02-15T09:00:53.083Z,24.9
2017-02-15T09:01:53.136Z,24.9
2017-02-15T09:02:53.185Z,24.9
2017-02-15T09:03:56.045Z,24.9
2017-02-15T09:04:53.261Z,24.9
2017-02-15T09:05:54.065Z,24.9
2017-02-15T09:06:56.160Z,24.9
2017-02-15T09:07:56.169Z,24.9
2017-02-15T09:08:56.295Z,24.9
2017-02-15T09:09:53.938Z,25
2017-02-15T09:10:53.530Z,25
2017-02-15T09:11:56.586Z,25
2017-02-15T09:12:57.117Z,25
2017-02-15T09:13:56.702Z,25
2017-02-15T09:14:56.641Z,25
2017-02-15T09:15:53.824Z,25
2017-02-15T09:16:53.821Z,25.1
2017-02-15T09:17:54.125Z,25.1
2017-02-15T09:18:54.038Z,25.1
2017-02-15T09:19:56.879Z,25.1
2017-02-15T09:20:53.973Z,25.2
2017-02-15T09:21:54.057Z,25.2
2017-02-15T09:22:57.026Z,25.2
2017-02-15T09:23:54.334Z,25.2
2017-02-15T09:24:57.015Z,25.2
2017-02-15T09:25:54.247Z,25.2
2017-02-15T09:26:54.303Z,25.2
2017-02-15T09:27:54.360Z,25.3
2017-02-15T09:28:55.092Z,25.3
2017-02-15T09:29:57.472Z,25.3
2017-02-15T09:30:57.315Z,25.3
2017-02-15T09:31:57.413Z,25.3
2017-02-15T09:32:54.639Z,25.4
2017-02-15T09:33:57.504Z,25.3
2017-02-15T09:34:54.877Z,25.4
2017-02-15T09:35:59.514Z,25.4
2017-02-15T09:36:55.378Z,25.5
2017-02-15T09:37:57.683Z,25.5
2017-02-15T09:38:55.482Z,25.5
2017-02-15T09:39:54.988Z,25.5
2017-02-15T09:40:58.096Z,25.5
2017-02-15T09:41:58.002Z,25.6
2017-02-15T09:42:55.218Z,25.6
2017-02-15T09:43:57.980Z,25.6
2017-02-15T09:44:58.790Z,25.6
2017-02-15T09:45:58.230Z,25.6
2017-02-15T09:46:55.691Z,25.6
2017-02-15T09:47:55.432Z,25.7
2017-02-15T09:48:58.347Z,25.7
2017-02-15T09:49:55.587Z,25.7
2017-02-15T09:50:55.618Z,25.7
2017-02-15T09:51:58.529Z,25.8
2017-02-15T09:52:58.558Z,25.7
2017-02-15T09:53:55.693Z,25.8
2017-02-15T09:54:58.549Z,25.8
2017-02-15T09:55:59.859Z,25.8
2017-02-15T09:56:58.632Z,25.8
2017-02-15T09:57:58.796Z,25.8
2017-02-15T09:58:56.009Z,25.8
2017-02-15T09:59:56.050Z,25.9
2017-02-15T10:00:56.109Z,25.9
2017-02-15T10:01:59.046Z,25.9
2017-02-15T10:02:56.193Z,25.9
2017-02-15T10:03:59.020Z,25.9
2017-02-15T10:04:56.230Z,26
2017-02-15T10:05:59.084Z,26
2017-02-15T10:06:59.159Z,26
2017-02-15T10:07:59.321Z,26
2017-02-15T10:08:59.278Z,26
2017-02-15T10:09:56.456Z,26
2017-02-15T10:10:59.270Z,26
2017-02-15T10:11:59.342Z,26.1
2017-02-15T10:12:59.408Z,26
2017-02-15T10:13:56.640Z,26.1
2017-02-15T10:15:00.145Z,26.1
2017-02-15T10:15:59.619Z,26.1
2017-02-15T10:16:56.852Z,26.1
2017-02-15T10:17:56.886Z,26.2
2017-02-15T10:18:59.715Z,26.2
2017-02-15T10:19:56.934Z,26.2
2017-02-15T10:20:59.867Z,26.2
2017-02-15T10:21:57.118Z,26.3
2017-02-15T10:23:00.627Z,26.3
2017-02-15T10:23:59.992Z,26.3
2017-02-15T10:25:00.069Z,26.3
2017-02-15T10:25:57.351Z,26.3
2017-02-15T10:26:57.341Z,26.4
2017-02-15T10:27:57.430Z,26.4
2017-02-15T10:28:58.027Z,26.4
2017-02-15T10:30:00.400Z,26.4
2017-02-15T10:30:57.654Z,26.4
2017-02-15T10:31:57.726Z,26.5
2017-02-15T10:32:57.799Z,26.5
2017-02-15T10:34:00.717Z,26.5
2017-02-15T10:34:57.855Z,26.6
2017-02-15T10:35:57.864Z,26.6
2017-02-15T10:36:58.712Z,26.6
2017-02-15T10:37:57.965Z,26.6
2017-02-15T10:38:57.988Z,26.7
2017-02-15T10:40:01.515Z,26.7
2017-02-15T10:40:58.989Z,26.7
2017-02-15T10:42:01.640Z,26.8
2017-02-15T10:42:58.299Z,26.8
2017-02-15T10:43:58.259Z,26.8
2017-02-15T10:45:01.092Z,26.9
2017-02-15T10:45:58.991Z,26.9
2017-02-15T10:46:59.141Z,27
2017-02-15T10:47:58.477Z,27
2017-02-15T10:48:59.135Z,27.1
2017-02-15T10:50:02.022Z,27.1
2017-02-15T10:50:58.596Z,27.2
2017-02-15T10:51:58.568Z,27.2
2017-02-15T10:53:01.368Z,27.3
2017-02-15T10:54:01.500Z,27.3
2017-02-15T10:55:01.861Z,27.4
2017-02-15T10:55:58.678Z,27.5
2017-02-15T10:56:58.779Z,27.6
2017-02-15T10:57:58.886Z,27.7
2017-02-15T10:59:01.804Z,27.7
2017-02-15T10:59:59.541Z,27.8
2017-02-15T11:00:59.028Z,27.9
2017-02-15T11:01:59.105Z,28
2017-02-15T11:02:59.820Z,28
2017-02-15T11:03:59.157Z,28.1
2017-02-15T11:04:59.233Z,28.2
2017-02-15T11:06:02.838Z,28.2
2017-02-15T11:07:02.185Z,28.3
2017-02-15T11:08:02.136Z,28.4
2017-02-15T11:09:02.243Z,28.4
2017-02-15T11:10:02.341Z,28.5
2017-02-15T11:11:02.942Z,28.6
2017-02-15T11:12:02.467Z,28.6
2017-02-15T11:12:59.621Z,28.7
2017-02-15T11:13:59.704Z,28.8
2017-02-15T11:15:01.115Z,28.9
2017-02-15T11:15:59.787Z,29
2017-02-15T11:17:04.313Z,29
2017-02-15T11:17:59.995Z,29.1
2017-02-15T11:18:59.983Z,29.1
2017-02-15T11:20:02.854Z,29.3
2017-02-15T11:21:02.950Z,29.4
2017-02-15T11:22:00.752Z,29.4
2017-02-15T11:23:03.485Z,29.5
2017-02-15T11:24:00.036Z,29.6
2017-02-15T11:25:03.081Z,29.7
2017-02-15T11:26:03.013Z,29.8
2017-02-15T11:27:03.064Z,29.9
2017-02-15T11:28:03.174Z,30.1
2017-02-15T11:29:04.501Z,30.2
2017-02-15T11:30:03.245Z,30.4
2017-02-15T11:31:01.155Z,30.5
2017-02-15T11:32:00.592Z,30.6
2017-02-15T11:33:04.099Z,30.8
2017-02-15T11:34:03.606Z,31
2017-02-15T11:35:00.686Z,31.1
2017-02-15T11:36:03.555Z,31.3
2017-02-15T11:37:04.308Z,31.4
2017-02-15T11:38:00.879Z,31.6
2017-02-15T11:39:03.729Z,31.7
2017-02-15T11:40:03.753Z,31.9
2017-02-15T11:41:03.791Z,32
2017-02-15T11:42:03.850Z,32.2
2017-02-15T11:43:02.047Z,32.3
2017-02-15T11:44:01.107Z,32.4
2017-02-15T11:45:04.088Z,32.5
2017-02-15T11:46:04.026Z,32.6
2017-02-15T11:47:01.156Z,32.7
2017-02-15T11:48:01.147Z,32.8
2017-02-15T11:49:04.049Z,32.9
2017-02-15T11:50:01.250Z,33
2017-02-15T11:51:04.061Z,33.1
2017-02-15T11:52:01.283Z,33.2
2017-02-15T11:53:01.310Z,33.3
2017-02-15T11:54:01.399Z,33.3
2017-02-15T11:55:04.270Z,33.4
2017-02-15T11:56:04.306Z,33.5
2017-02-15T11:57:05.681Z,33.5
2017-02-15T11:58:01.601Z,33.5
2017-02-15T11:59:04.458Z,33.6
2017-02-15T12:00:01.670Z,33.6
2017-02-15T12:01:02.278Z,33.6
2017-02-15T12:02:01.701Z,33.6
2017-02-15T12:03:04.585Z,33.6
2017-02-15T12:04:02.425Z,33.5
2017-02-15T12:05:01.798Z,33.4
2017-02-15T12:06:05.271Z,33.3
2017-02-15T12:07:05.283Z,33.2
2017-02-15T12:08:01.895Z,33.1
2017-02-15T12:09:04.855Z,33
2017-02-15T12:10:02.145Z,32.9
2017-02-15T12:11:02.217Z,32.8
2017-02-15T12:12:02.122Z,32.7
2017-02-15T12:13:02.234Z,32.6
2017-02-15T12:14:05.151Z,32.5
2017-02-15T12:15:02.356Z,32.4
2017-02-15T12:16:02.463Z,32.3
2017-02-15T12:17:05.310Z,32.2
2017-02-15T12:18:02.488Z,32.2
2017-02-15T12:19:05.939Z,32.1
2017-02-15T12:20:02.591Z,32
2017-02-15T12:21:03.311Z,32
2017-02-15T12:22:02.781Z,31.9
2017-02-15T12:23:02.799Z,31.9
2017-02-15T12:24:02.805Z,31.9
2017-02-15T12:25:07.891Z,31.9
2017-02-15T12:26:03.006Z,31.9
2017-02-15T12:27:03.023Z,31.9
2017-02-15T12:28:06.372Z,31.9
2017-02-15T12:29:05.822Z,31.9
2017-02-15T12:30:03.048Z,32
2017-02-15T12:31:03.173Z,32.1
2017-02-15T12:32:06.020Z,32.2
2017-02-15T12:33:03.187Z,32.3
2017-02-15T12:34:03.915Z,32.3
2017-02-15T12:35:06.107Z,32.4
2017-02-15T12:36:06.072Z,32.5
2017-02-15T12:37:07.162Z,32.5
2017-02-15T12:38:06.761Z,32.6
2017-02-15T12:39:03.382Z,32.7
2017-02-15T12:40:04.179Z,32.7
2017-02-15T12:41:04.315Z,32.7
2017-02-15T12:42:06.405Z,32.7
2017-02-15T12:43:04.514Z,32.7
2017-02-15T12:44:06.416Z,32.7
2017-02-15T12:45:04.295Z,32.8
2017-02-15T12:46:03.744Z,32.8
2017-02-15T12:47:06.601Z,32.8
2017-02-15T12:48:03.869Z,32.9
2017-02-15T12:49:03.974Z,32.9
2017-02-15T12:50:08.831Z,33
2017-02-15T12:51:04.136Z,33
2017-02-15T12:52:04.655Z,33
2017-02-15T12:53:04.857Z,33.1
2017-02-15T12:54:04.988Z,33.2
2017-02-15T12:55:04.340Z,33.3
2017-02-15T12:56:04.453Z,33.4
2017-02-15T12:57:04.449Z,33.4
2017-02-15T12:58:07.376Z,33.6
2017-02-15T12:59:07.497Z,33.7
2017-02-15T13:00:04.680Z,33.7
2017-02-15T13:01:08.159Z,33.8
2017-02-15T13:02:04.930Z,33.9
2017-02-15T13:03:07.674Z,34
2017-02-15T13:04:04.932Z,34.1
2017-02-15T13:05:07.855Z,34.2
2017-02-15T13:06:07.902Z,34.3
2017-02-15T13:07:08.473Z,34.4
2017-02-15T13:08:08.254Z,34.5
2017-02-15T13:09:05.721Z,34.5
2017-02-15T13:10:08.130Z,34.6
2017-02-15T13:11:05.416Z,34.7
2017-02-15T13:12:08.252Z,34.7
2017-02-15T13:13:05.416Z,34.8
2017-02-15T13:14:09.156Z,34.9
2017-02-15T13:15:05.458Z,35
2017-02-15T13:16:05.536Z,35
2017-02-15T13:17:08.440Z,35.1
2017-02-15T13:18:08.483Z,35.1
2017-02-15T13:19:08.760Z,35.2
2017-02-15T13:20:08.561Z,35.2
2017-02-15T13:21:09.881Z,35.2
2017-02-15T13:22:08.716Z,35.2
2017-02-15T13:23:08.811Z,35.2
2017-02-15T13:24:06.666Z,35.3